createdAt,value
2023-02-28T00:11:55.416Z,-1.75
2023-02-28T00:27:00.386Z,-2
2023-02-28T00:42:05.431Z,-2
2023-02-28T00:57:10.433Z,-2.07
2023-02-28T01:12:15.435Z,-2.13
2023-02-28T01:27:20.460Z,-3.19
2023-02-28T01:42:25.467Z,-3.69
2023-02-28T01:57:30.676Z,-4.38
2023-02-28T02:12:35.484Z,-4.07
2023-02-28T02:27:40.522Z,-3.88
2023-02-28T02:42:45.490Z,-4.13
2023-02-28T02:57:50.520Z,-4.38
2023-02-28T03:12:55.568Z,-3.44
2023-02-28T03:28:00.573Z,-4.07
2023-02-28T03:43:05.589Z,-3.32
2023-02-28T03:58:10.601Z,-4.5
2023-02-28T04:13:15.688Z,-4.5
2023-02-28T04:28:20.648Z,-4.82
2023-02-28T04:43:23.671Z,-4.88
2023-02-28T04:58:28.638Z,-4.32
2023-02-28T05:13:31.683Z,-4.13
2023-02-28T05:28:36.719Z,-4.69
2023-02-28T05:43:41.725Z,-4.94
2023-02-28T05:58:46.751Z,-5.19
2023-02-28T06:13:51.750Z,-5.13
2023-02-28T06:28:56.777Z,-4.38
2023-02-28T06:44:01.860Z,-4.57
2023-02-28T06:59:06.858Z,-5
2023-02-28T07:14:11.840Z,-4.82
2023-02-28T07:29:16.848Z,-4.38
2023-02-28T07:44:21.897Z,-4
2023-02-28T07:59:26.889Z,-2.94
2023-02-28T08:14:31.913Z,-2.07
2023-02-28T08:29:36.924Z,-2
2023-02-28T08:44:41.977Z,-1.5
2023-02-28T08:59:46.966Z,-1.13
2023-02-28T09:14:52.017Z,-0.75
2023-02-28T09:29:56.970Z,-0.13
2023-02-28T09:45:01.991Z,-0.19
2023-02-28T10:00:06.986Z,0.43
2023-02-28T10:15:12.012Z,0.31
2023-02-28T10:30:16.991Z,0.37
2023-02-28T10:45:22.019Z,1.31
2023-02-28T11:00:27.013Z,1.25
2023-02-28T11:15:32.057Z,1.12
2023-02-28T11:30:37.046Z,1.81
2023-02-28T11:45:42.028Z,1.93
2023-02-28T12:00:47.055Z,2.18
2023-02-28T12:15:52.207Z,2.62
2023-02-28T12:30:57.129Z,2.37
2023-02-28T12:46:02.302Z,2.56
2023-02-28T13:01:07.135Z,2.93
2023-02-28T13:16:12.095Z,3
2023-02-28T13:31:17.105Z,2.87
2023-02-28T13:46:22.181Z,3.06
2023-02-28T14:01:27.267Z,3.18
2023-02-28T14:16:32.395Z,3.37
2023-02-28T14:31:37.162Z,3.31
2023-02-28T14:46:42.199Z,3.18
2023-02-28T15:01:47.433Z,3.12
2023-02-28T15:16:52.262Z,3.06
2023-02-28T15:31:58.230Z,2.87
2023-02-28T15:47:02.129Z,2.81
2023-02-28T16:02:07.219Z,3
2023-02-28T16:17:12.140Z,2.87
2023-02-28T16:32:17.147Z,2.68
2023-02-28T16:47:22.186Z,2.43
2023-02-28T17:02:27.438Z,2.25
2023-02-28T17:17:32.180Z,2.06
2023-02-28T17:32:37.229Z,1.87
2023-02-28T17:47:42.229Z,1.75
2023-02-28T18:02:47.289Z,1.43
2023-02-28T18:17:52.238Z,1.25
2023-02-28T18:32:57.380Z,0.75
2023-02-28T18:48:02.253Z,0.62
2023-02-28T19:03:07.234Z,-0.32
2023-02-28T19:18:12.244Z,-0.69
2023-02-28T19:33:17.244Z,-1.88
2023-02-28T19:48:22.286Z,-1.94
2023-02-28T20:03:27.313Z,-2.57
2023-02-28T20:18:32.318Z,-3.13
2023-02-28T20:33:37.321Z,-3.5
2023-02-28T20:48:42.355Z,-3.44
2023-02-28T21:03:47.349Z,-3.13
2023-02-28T21:18:52.356Z,-3.75
2023-02-28T21:33:55.383Z,-3.25
2023-02-28T21:49:00.401Z,-3.69
2023-02-28T22:04:05.380Z,-4.07
2023-02-28T22:19:10.422Z,-4.19
2023-02-28T22:34:15.435Z,-4
2023-02-28T22:49:20.426Z,-4.19
2023-02-28T23:04:25.535Z,-4.44
2023-02-28T23:19:28.482Z,-4.19
2023-02-28T23:34:33.521Z,-3.5
2023-02-28T23:49:38.531Z,-3.75
